createdAt,value
2017-11-15T00:01:15.141Z,8.30
2017-11-15T00:03:44.512Z,8.87
2017-11-15T00:06:13.564Z,9.00
2017-11-15T00:08:41.857Z,7.17
2017-11-15T00:11:10.173Z,9.90
2017-11-15T00:13:39.736Z,10.00
2017-11-15T00:16:08.096Z,10.57
2017-11-15T00:18:37.216Z,8.60
2017-11-15T00:21:06.296Z,8.63
2017-11-15T00:23:34.613Z,8.73
2017-11-15T00:26:03.680Z,8.83
2017-11-15T00:28:31.983Z,9.77
2017-11-15T00:31:01.871Z,9.10
2017-11-15T00:33:30.152Z,9.77
2017-11-15T00:35:59.425Z,10.57
2017-11-15T00:38:28.479Z,8.20
2017-11-15T00:40:56.792Z,10.27
2017-11-15T00:43:25.100Z,10.40
2017-11-15T00:45:55.125Z,8.80
2017-11-15T00:48:23.432Z,12.10
2017-11-15T00:50:52.505Z,9.77
2017-11-15T00:53:20.795Z,11.20
2017-11-15T00:55:49.197Z,8.63
2017-11-15T00:58:17.485Z,10.03
2017-11-15T01:00:45.800Z,9.00
2017-11-15T01:03:14.852Z,10.40
2017-11-15T01:05:43.141Z,9.23
2017-11-15T01:08:12.224Z,11.20
2017-11-15T01:10:40.541Z,11.30
2017-11-15T01:13:08.836Z,10.20
2017-11-15T01:15:37.152Z,9.70
2017-11-15T01:18:05.435Z,9.40
2017-11-15T01:20:33.755Z,9.73
2017-11-15T01:23:02.808Z,9.77
2017-11-15T01:25:31.103Z,10.30
2017-11-15T01:27:59.447Z,10.63
2017-11-15T01:30:29.513Z,9.93
2017-11-15T01:32:57.828Z,8.30
2017-11-15T01:35:26.139Z,9.33
2017-11-15T01:37:54.484Z,9.00
2017-11-15T01:40:22.807Z,9.17
2017-11-15T01:42:51.164Z,10.57
2017-11-15T01:45:19.450Z,9.57
2017-11-15T01:47:47.741Z,8.20
2017-11-15T01:50:16.052Z,9.13
2017-11-15T01:52:44.327Z,8.63
2017-11-15T01:55:12.982Z,9.23
2017-11-15T01:57:42.040Z,9.17
2017-11-15T02:00:11.069Z,8.60
2017-11-15T02:02:39.387Z,10.60
2017-11-15T02:05:08.640Z,8.87
2017-11-15T02:07:36.923Z,9.53
2017-11-15T02:10:05.356Z,10.00
2017-11-15T02:12:34.949Z,9.90
2017-11-15T02:15:03.236Z,10.57
2017-11-15T02:17:32.375Z,9.80
2017-11-15T02:20:00.745Z,10.23
2017-11-15T02:22:29.106Z,9.67
2017-11-15T02:24:57.385Z,8.40
2017-11-15T02:27:25.676Z,9.40
2017-11-15T02:29:54.002Z,11.07
2017-11-15T02:32:22.289Z,9.87
2017-11-15T02:34:51.909Z,10.63
2017-11-15T02:37:20.223Z,10.93
2017-11-15T02:39:48.622Z,10.10
2017-11-15T02:42:16.985Z,12.30
2017-11-15T02:44:45.279Z,11.40
2017-11-15T02:47:13.568Z,10.03
2017-11-15T02:49:41.904Z,10.03
2017-11-15T02:52:10.221Z,10.53
2017-11-15T02:54:38.921Z,11.13
2017-11-15T02:57:07.237Z,11.00
2017-11-15T02:59:36.265Z,11.03
2017-11-15T03:02:05.340Z,9.07
2017-11-15T03:04:35.411Z,11.00
2017-11-15T03:07:04.464Z,10.30
2017-11-15T03:09:32.860Z,11.00
2017-11-15T03:12:01.155Z,10.00
2017-11-15T03:14:29.452Z,11.67
2017-11-15T03:16:57.807Z,9.97
2017-11-15T03:19:27.052Z,9.83
2017-11-15T03:21:55.332Z,10.10
2017-11-15T03:24:23.748Z,10.87
2017-11-15T03:26:52.041Z,11.10
2017-11-15T03:29:20.380Z,11.30
2017-11-15T03:31:48.681Z,10.93
2017-11-15T03:34:17.015Z,9.93
2017-11-15T03:36:45.329Z,10.60
2017-11-15T03:39:13.645Z,10.13
2017-11-15T03:41:41.928Z,9.50
2017-11-15T03:44:10.257Z,11.03
2017-11-15T03:46:38.547Z,10.17
2017-11-15T03:49:08.484Z,12.20
2017-11-15T03:51:36.789Z,9.37
2017-11-15T03:54:05.847Z,10.33
2017-11-15T03:56:34.162Z,10.10
2017-11-15T03:59:02.556Z,12.60
2017-11-15T04:01:31.923Z,10.10
2017-11-15T04:04:00.202Z,9.47
2017-11-15T04:06:28.516Z,11.60
2017-11-15T04:08:56.936Z,10.40
2017-11-15T04:11:25.320Z,10.33
2017-11-15T04:13:56.341Z,11.43
2017-11-15T04:16:24.670Z,10.90
2017-11-15T04:18:53.063Z,11.27
2017-11-15T04:21:21.351Z,11.10
2017-11-15T04:23:49.739Z,11.20
2017-11-15T04:26:18.029Z,11.23
2017-11-15T04:28:46.458Z,11.17
2017-11-15T04:31:14.741Z,11.13
2017-11-15T04:33:43.801Z,10.40
2017-11-15T04:36:12.144Z,11.20
2017-11-15T04:38:40.448Z,12.40
2017-11-15T04:41:08.764Z,12.60
2017-11-15T04:43:37.054Z,12.20
2017-11-15T04:46:05.397Z,10.67
2017-11-15T04:48:34.452Z,12.87
2017-11-15T04:51:02.861Z,11.93
2017-11-15T04:53:31.156Z,11.27
2017-11-15T04:55:59.451Z,13.73
2017-11-15T04:58:27.803Z,13.03
2017-11-15T05:00:56.137Z,14.10
2017-11-15T05:03:24.416Z,14.20
2017-11-15T05:05:52.736Z,13.50
2017-11-15T05:08:21.060Z,13.90
2017-11-15T05:10:49.347Z,13.87
2017-11-15T05:13:17.679Z,15.10
2017-11-15T05:15:46.895Z,14.30
2017-11-15T05:18:15.992Z,16.83
2017-11-15T05:20:44.290Z,13.67
2017-11-15T05:23:12.681Z,16.83
2017-11-15T05:25:41.838Z,16.63
2017-11-15T05:28:10.133Z,16.43
2017-11-15T05:30:38.452Z,19.93
2017-11-15T05:33:06.777Z,18.83
2017-11-15T05:35:35.840Z,17.83
2017-11-15T05:38:04.170Z,17.80
2017-11-15T05:40:33.237Z,18.27
2017-11-15T05:43:01.542Z,21.87
2017-11-15T05:45:30.684Z,18.30
2017-11-15T05:47:59.017Z,17.77
2017-11-15T05:50:27.300Z,17.10
2017-11-15T05:52:56.428Z,16.23
2017-11-15T05:55:24.759Z,19.50
2017-11-15T05:57:53.816Z,18.40
2017-11-15T06:00:23.006Z,18.27
2017-11-15T06:02:51.314Z,19.53
2017-11-15T06:05:19.645Z,19.70
2017-11-15T06:07:48.836Z,17.23
2017-11-15T06:10:18.593Z,17.60
2017-11-15T06:12:46.893Z,18.70
2017-11-15T06:15:15.142Z,19.37
2017-11-15T06:17:43.498Z,18.43
2017-11-15T06:20:12.628Z,20.30
2017-11-15T06:22:41.733Z,19.97
2017-11-15T06:25:10.845Z,21.47
2017-11-15T06:27:39.095Z,20.50
2017-11-15T06:30:07.409Z,23.87
2017-11-15T06:32:35.835Z,22.40
2017-11-15T06:35:06.176Z,21.43
2017-11-15T06:37:35.229Z,22.30
2017-11-15T06:40:03.440Z,21.13
2017-11-15T06:42:31.959Z,21.20
2017-11-15T06:45:01.052Z,24.30
2017-11-15T06:47:29.352Z,23.40
2017-11-15T06:49:57.672Z,22.33
2017-11-15T06:52:25.965Z,23.47
2017-11-15T06:54:54.287Z,18.87
2017-11-15T06:57:22.584Z,19.10
2017-11-15T06:59:50.903Z,24.03
2017-11-15T07:02:19.958Z,19.63
2017-11-15T07:04:50.539Z,25.37
2017-11-15T07:07:18.856Z,19.63
2017-11-15T07:09:47.940Z,18.47
2017-11-15T07:12:16.328Z,19.13
2017-11-15T07:14:44.828Z,17.63
2017-11-15T07:17:13.117Z,18.30
2017-11-15T07:19:41.500Z,15.57
2017-11-15T07:22:09.816Z,16.90
2017-11-15T07:24:38.912Z,19.30
2017-11-15T07:27:07.236Z,16.20
2017-11-15T07:29:35.528Z,17.77
2017-11-15T07:32:03.855Z,21.53
2017-11-15T07:34:32.264Z,14.63
2017-11-15T07:37:00.591Z,16.80
2017-11-15T07:39:28.921Z,17.37
2017-11-15T07:41:57.244Z,17.30
2017-11-15T07:44:26.380Z,17.57
2017-11-15T07:46:54.731Z,15.27
2017-11-15T07:49:23.020Z,14.00
2017-11-15T07:51:51.343Z,15.10
2017-11-15T07:54:19.647Z,13.77
2017-11-15T07:56:47.995Z,14.10
2017-11-15T07:59:16.287Z,14.50
2017-11-15T08:01:44.616Z,13.43
2017-11-15T08:04:12.937Z,16.60
2017-11-15T08:06:41.319Z,14.90
2017-11-15T08:09:09.620Z,13.00
2017-11-15T08:11:37.935Z,11.87
2017-11-15T08:14:06.245Z,13.20
2017-11-15T08:16:36.124Z,13.00
2017-11-15T08:19:04.535Z,15.27
2017-11-15T08:21:32.866Z,12.60
2017-11-15T08:24:01.188Z,13.30
2017-11-15T08:26:29.528Z,14.30
2017-11-15T08:28:57.819Z,14.37
2017-11-15T08:31:26.118Z,16.90
2017-11-15T08:33:54.440Z,13.77
2017-11-15T08:36:23.491Z,13.33
2017-11-15T08:38:51.844Z,14.53
2017-11-15T08:41:20.897Z,14.77
2017-11-15T08:43:49.213Z,15.20
2017-11-15T08:46:17.556Z,15.63
2017-11-15T08:48:45.844Z,15.37
2017-11-15T08:51:14.137Z,15.60
2017-11-15T08:53:42.465Z,16.30
2017-11-15T08:56:10.757Z,14.97
2017-11-15T08:58:39.069Z,16.83
2017-11-15T09:01:08.124Z,16.93
2017-11-15T09:03:36.440Z,15.77
2017-11-15T09:06:04.767Z,15.50
2017-11-15T09:08:33.052Z,14.37
2017-11-15T09:11:01.368Z,14.90
2017-11-15T09:13:29.684Z,14.37
2017-11-15T09:15:57.992Z,16.07
2017-11-15T09:18:26.306Z,17.70
2017-11-15T09:20:54.665Z,16.27
2017-11-15T09:23:22.988Z,17.73
2017-11-15T09:25:51.341Z,15.60
2017-11-15T09:28:19.672Z,17.43
2017-11-15T09:30:49.969Z,15.07
2017-11-15T09:33:18.303Z,16.20
2017-11-15T09:35:46.588Z,15.27
2017-11-15T09:38:15.028Z,17.00
2017-11-15T09:40:43.327Z,18.10
2017-11-15T09:43:13.145Z,17.43
2017-11-15T09:48:17.008Z,17.70
2017-11-15T09:50:46.077Z,19.10
2017-11-15T09:53:14.498Z,19.20
2017-11-15T09:55:43.568Z,19.33
2017-11-15T09:58:11.855Z,17.57
2017-11-15T10:00:40.163Z,20.40
2017-11-15T10:03:08.489Z,19.27
2017-11-15T10:05:37.580Z,16.20
2017-11-15T10:08:05.964Z,18.47
2017-11-15T10:10:34.357Z,17.07
2017-11-15T10:13:02.752Z,18.53
2017-11-15T10:15:31.076Z,19.70
2017-11-15T10:17:59.380Z,17.30
2017-11-15T10:20:27.667Z,14.73
2017-11-15T10:22:55.980Z,16.40
2017-11-15T10:25:24.272Z,16.70
2017-11-15T10:27:52.592Z,17.33
2017-11-15T10:30:20.891Z,15.83
2017-11-15T10:32:49.969Z,14.20
2017-11-15T10:35:18.277Z,17.67
2017-11-15T10:37:46.597Z,15.67
2017-11-15T10:40:14.888Z,18.77
2017-11-15T10:42:43.203Z,17.20
2017-11-15T10:45:11.576Z,14.93
2017-11-15T10:47:39.864Z,15.57
2017-11-15T10:50:08.164Z,15.07
2017-11-15T10:52:36.596Z,14.80
2017-11-15T10:55:04.945Z,15.40
2017-11-15T10:57:33.315Z,15.07
2017-11-15T11:00:02.375Z,15.47
2017-11-15T11:02:30.675Z,16.07
2017-11-15T11:04:59.832Z,15.23
2017-11-15T11:07:28.132Z,14.83
2017-11-15T11:09:56.424Z,12.97
2017-11-15T11:12:24.740Z,14.73
2017-11-15T11:14:53.040Z,11.20
2017-11-15T11:17:21.376Z,14.80
2017-11-15T11:19:49.693Z,14.37
2017-11-15T11:22:18.020Z,12.50
2017-11-15T11:24:46.312Z,11.70
2017-11-15T11:27:14.629Z,13.70
2017-11-15T11:29:42.922Z,12.87
2017-11-15T11:32:11.259Z,12.17
2017-11-15T11:34:39.553Z,12.10
2017-11-15T11:37:07.899Z,13.53
2017-11-15T11:39:36.228Z,12.93
2017-11-15T11:42:04.522Z,15.10
2017-11-15T11:44:34.380Z,11.90
2017-11-15T11:47:03.443Z,12.10
2017-11-15T11:49:31.824Z,13.90
2017-11-15T11:52:00.143Z,12.00
2017-11-15T11:54:28.528Z,13.67
2017-11-15T11:56:57.024Z,14.50
2017-11-15T11:59:25.318Z,13.20
2017-11-15T12:01:55.225Z,11.27
2017-11-15T12:04:23.549Z,12.70
2017-11-15T12:06:52.605Z,13.17
2017-11-15T12:09:20.932Z,14.50
2017-11-15T12:11:49.217Z,11.90
2017-11-15T12:14:17.544Z,12.00
2017-11-15T12:16:45.873Z,11.10
2017-11-15T12:19:14.187Z,12.83
2017-11-15T12:21:42.526Z,11.90
2017-11-15T12:24:10.889Z,10.50
2017-11-15T12:26:39.985Z,11.20
2017-11-15T12:29:08.276Z,9.60
2017-11-15T12:31:36.592Z,8.43
2017-11-15T12:34:04.880Z,8.63
2017-11-15T12:36:33.196Z,9.67
2017-11-15T12:39:01.486Z,9.93
2017-11-15T12:41:29.912Z,10.43
2017-11-15T12:43:58.244Z,9.80
2017-11-15T12:46:26.570Z,10.73
2017-11-15T12:48:54.865Z,9.70
2017-11-15T12:51:23.176Z,9.60
2017-11-15T12:53:51.461Z,9.13
2017-11-15T12:56:19.789Z,9.67
2017-11-15T12:58:48.141Z,10.73
2017-11-15T13:01:16.445Z,10.63
2017-11-15T13:03:44.824Z,9.83
2017-11-15T13:06:13.303Z,10.53
2017-11-15T13:08:41.593Z,9.93
2017-11-15T13:11:09.993Z,10.70
2017-11-15T13:13:38.383Z,11.43
2017-11-15T13:16:06.748Z,11.60
2017-11-15T13:18:35.063Z,11.47
2017-11-15T13:21:03.356Z,10.03
2017-11-15T13:23:31.684Z,12.40
2017-11-15T13:26:00.037Z,9.10
2017-11-15T13:28:29.106Z,9.77
2017-11-15T13:30:57.440Z,9.30
2017-11-15T13:33:25.723Z,9.67
2017-11-15T13:35:54.051Z,11.60
2017-11-15T13:38:22.379Z,9.70
2017-11-15T13:40:50.668Z,11.03
2017-11-15T13:43:19.080Z,11.20
2017-11-15T13:45:47.411Z,8.87
2017-11-15T13:48:15.700Z,10.07
2017-11-15T13:50:44.030Z,11.40
2017-11-15T13:53:12.360Z,11.13
2017-11-15T13:55:41.434Z,9.87
2017-11-15T13:58:09.755Z,9.00
2017-11-15T14:00:38.045Z,10.43
2017-11-15T14:03:07.140Z,10.73
2017-11-15T14:05:35.431Z,17.00
2017-11-15T14:08:03.764Z,11.30
2017-11-15T14:10:32.096Z,10.17
2017-11-15T14:13:00.456Z,8.27
2017-11-15T14:15:28.740Z,9.83
2017-11-15T14:17:57.026Z,9.37
2017-11-15T14:20:25.345Z,10.30
2017-11-15T14:22:53.634Z,10.80
2017-11-15T14:25:21.965Z,9.00
2017-11-15T14:27:51.020Z,9.10
2017-11-15T14:30:19.333Z,9.80
2017-11-15T14:32:47.620Z,16.00
2017-11-15T14:35:15.949Z,12.63
2017-11-15T14:37:44.281Z,13.23
2017-11-15T14:40:12.657Z,14.90
2017-11-15T14:42:40.958Z,14.50
2017-11-15T14:45:09.252Z,10.43
2017-11-15T14:47:37.656Z,10.50
2017-11-15T14:50:05.958Z,12.60
2017-11-15T14:52:34.255Z,10.13
2017-11-15T14:55:04.699Z,11.27
2017-11-15T14:57:33.748Z,12.00
2017-11-15T15:00:02.044Z,12.20
2017-11-15T15:02:30.456Z,13.10
2017-11-15T15:04:58.768Z,13.80
2017-11-15T15:07:27.065Z,12.50
2017-11-15T15:09:56.199Z,12.93
2017-11-15T15:12:24.488Z,13.23
2017-11-15T15:14:52.792Z,14.47
2017-11-15T15:17:21.109Z,17.17
2017-11-15T15:19:49.439Z,16.63
2017-11-15T15:22:18.524Z,15.43
2017-11-15T15:24:46.813Z,15.10
2017-11-15T15:27:15.140Z,17.27
2017-11-15T15:29:43.461Z,20.60
2017-11-15T15:32:11.785Z,23.47
2017-11-15T15:34:41.576Z,23.43
2017-11-15T15:37:09.936Z,18.27
2017-11-15T15:39:38.231Z,12.63
2017-11-15T15:42:06.521Z,12.87
2017-11-15T15:44:34.845Z,11.30
2017-11-15T15:47:03.143Z,13.30
2017-11-15T15:49:31.431Z,14.23
2017-11-15T15:51:59.760Z,15.90
2017-11-15T15:54:30.067Z,14.90
2017-11-15T15:56:58.368Z,11.87
2017-11-15T15:59:28.596Z,11.40
2017-11-15T16:01:56.880Z,12.00
2017-11-15T16:04:25.258Z,10.13
2017-11-15T16:06:53.580Z,10.73
2017-11-15T16:09:22.685Z,12.83
2017-11-15T16:11:51.748Z,11.47
2017-11-15T16:14:20.072Z,11.43
2017-11-15T16:16:48.367Z,11.83
2017-11-15T16:19:17.564Z,10.73
2017-11-15T16:21:47.368Z,12.20
2017-11-15T16:24:15.661Z,12.30
2017-11-15T16:26:43.970Z,12.70
2017-11-15T16:29:12.259Z,11.40
2017-11-15T16:31:40.585Z,11.40
2017-11-15T16:34:08.903Z,13.53
2017-11-15T16:36:37.223Z,11.63
2017-11-15T16:39:05.522Z,12.03
2017-11-15T16:41:33.835Z,11.83
2017-11-15T16:44:02.135Z,11.77
2017-11-15T16:46:30.460Z,13.83
2017-11-15T16:48:58.756Z,12.87
2017-11-15T16:51:27.235Z,12.67
2017-11-15T16:53:55.550Z,14.07
2017-11-15T16:56:23.859Z,12.23
2017-11-15T16:58:52.912Z,12.33
2017-11-15T17:01:21.239Z,12.73
2017-11-15T17:03:49.541Z,12.80
2017-11-15T17:06:17.860Z,13.40
2017-11-15T17:08:46.164Z,13.43
2017-11-15T17:11:14.706Z,15.53
2017-11-15T17:13:42.995Z,13.63
2017-11-15T17:16:11.289Z,14.37
2017-11-15T17:18:39.668Z,15.07
2017-11-15T17:21:07.955Z,17.07
2017-11-15T17:23:36.353Z,15.00
2017-11-15T17:26:04.676Z,16.13
2017-11-15T17:28:32.980Z,15.53
2017-11-15T17:31:01.345Z,15.57
2017-11-15T17:33:30.401Z,15.47
2017-11-15T17:35:58.706Z,14.77
2017-11-15T17:38:27.031Z,14.83
2017-11-15T17:40:56.119Z,16.20
2017-11-15T17:43:24.510Z,16.67
2017-11-15T17:45:52.837Z,17.80
2017-11-15T17:48:21.170Z,15.90
2017-11-15T17:50:49.491Z,18.90
2017-11-15T17:53:18.549Z,15.83
2017-11-15T17:55:46.863Z,17.43
2017-11-15T17:58:15.156Z,18.40
2017-11-15T18:00:44.989Z,18.67
2017-11-15T18:03:13.284Z,16.63
2017-11-15T18:05:41.600Z,17.27
2017-11-15T18:08:10.647Z,20.60
2017-11-15T18:10:38.972Z,18.67
2017-11-15T18:13:07.252Z,18.47
2017-11-15T18:15:35.635Z,20.47
2017-11-15T18:18:03.959Z,16.87
2017-11-15T18:20:33.012Z,17.97
2017-11-15T18:23:01.311Z,20.03
2017-11-15T18:25:29.627Z,18.40
2017-11-15T18:27:58.698Z,17.57
2017-11-15T18:30:27.013Z,18.17
2017-11-15T18:32:55.312Z,17.93
2017-11-15T18:35:25.635Z,17.20
2017-11-15T18:37:53.935Z,15.77
2017-11-15T18:40:23.024Z,16.10
2017-11-15T18:42:51.317Z,16.40
2017-11-15T18:45:19.624Z,17.30
2017-11-15T18:47:48.680Z,18.47
2017-11-15T18:50:16.992Z,16.37
2017-11-15T18:52:45.607Z,16.60
2017-11-15T18:55:13.915Z,15.77
2017-11-15T18:57:42.979Z,16.80
2017-11-15T19:00:11.299Z,16.53
2017-11-15T19:02:40.359Z,15.80
2017-11-15T19:05:08.772Z,16.50
2017-11-15T19:07:37.111Z,19.87
2017-11-15T19:10:05.517Z,18.50
2017-11-15T19:12:33.828Z,16.83
2017-11-15T19:15:02.237Z,18.27
2017-11-15T19:17:30.560Z,17.50
2017-11-15T19:20:00.664Z,17.00
2017-11-15T19:22:28.952Z,16.80
2017-11-15T19:24:57.259Z,16.27
2017-11-15T19:27:26.315Z,16.77
2017-11-15T19:29:54.679Z,18.73
2017-11-15T19:32:22.976Z,17.90
2017-11-15T19:34:51.252Z,17.17
2017-11-15T19:37:19.560Z,15.73
2017-11-15T19:39:47.872Z,17.80
2017-11-15T19:42:16.165Z,18.87
2017-11-15T19:44:44.495Z,16.47
2017-11-15T19:47:13.555Z,18.37
2017-11-15T19:49:41.872Z,17.87
2017-11-15T19:52:10.187Z,17.83
2017-11-15T19:54:39.314Z,17.60
2017-11-15T19:57:07.622Z,18.90
2017-11-15T19:59:36.047Z,18.70
2017-11-15T20:02:04.440Z,16.73
2017-11-15T20:04:34.061Z,17.20
2017-11-15T20:07:02.400Z,16.20
2017-11-15T20:09:30.728Z,17.00
2017-11-15T20:11:59.031Z,16.33
2017-11-15T20:14:27.328Z,17.00
2017-11-15T20:16:56.414Z,17.20
2017-11-15T20:19:24.736Z,18.97
2017-11-15T20:21:53.819Z,20.87
2017-11-15T20:24:22.135Z,16.40
2017-11-15T20:26:50.433Z,14.83
2017-11-15T20:29:18.772Z,15.20
2017-11-15T20:31:47.067Z,17.03
2017-11-15T20:34:15.377Z,17.20
2017-11-15T20:36:44.439Z,16.00
2017-11-15T20:39:12.751Z,15.07
2017-11-15T20:41:41.051Z,17.40
2017-11-15T20:44:09.364Z,16.90
2017-11-15T20:46:37.657Z,16.00
2017-11-15T20:49:05.984Z,16.00
2017-11-15T20:51:34.300Z,16.60
2017-11-15T20:54:02.789Z,15.80
2017-11-15T20:56:31.081Z,15.70
2017-11-15T20:58:59.368Z,17.17
2017-11-15T21:01:27.699Z,16.37
2017-11-15T21:03:55.995Z,16.63
2017-11-15T21:06:24.327Z,17.23
2017-11-15T21:08:52.631Z,19.20
2017-11-15T21:11:22.109Z,20.03
2017-11-15T21:13:50.444Z,18.20
2017-11-15T21:16:19.826Z,17.40
2017-11-15T21:18:48.111Z,17.10
2017-11-15T21:21:16.435Z,18.13
2017-11-15T21:23:44.767Z,17.30
2017-11-15T21:26:13.109Z,18.17
2017-11-15T21:28:41.500Z,18.03
2017-11-15T21:31:09.826Z,16.17
2017-11-15T21:33:38.166Z,19.33
2017-11-15T21:36:07.272Z,18.27
2017-11-15T21:38:35.591Z,18.70
2017-11-15T21:41:03.905Z,19.10
2017-11-15T21:43:32.220Z,16.77
2017-11-15T21:46:00.516Z,16.47
2017-11-15T21:48:28.837Z,16.00
2017-11-15T21:50:58.961Z,15.17
2017-11-15T21:53:27.356Z,16.00
2017-11-15T21:55:57.084Z,16.53
2017-11-15T21:58:25.552Z,15.80
2017-11-15T22:00:53.841Z,16.87
2017-11-15T22:03:22.155Z,17.90
2017-11-15T22:05:50.490Z,15.07
2017-11-15T22:08:18.837Z,18.47
2017-11-15T22:10:48.636Z,17.83
2017-11-15T22:13:17.039Z,18.00
2017-11-15T22:15:46.628Z,17.63
2017-11-15T22:18:14.940Z,19.13
2017-11-15T22:20:43.289Z,20.53
2017-11-15T22:23:11.637Z,22.93
2017-11-15T22:25:41.064Z,21.90
2017-11-15T22:28:10.230Z,20.73
2017-11-15T22:30:38.590Z,20.30
2017-11-15T22:33:06.940Z,21.30
2017-11-15T22:35:35.268Z,23.23
2017-11-15T22:38:03.616Z,20.50
2017-11-15T22:40:31.934Z,21.47
2017-11-15T22:43:01.025Z,20.17
2017-11-15T22:45:29.354Z,21.33
2017-11-15T22:47:57.644Z,20.70
2017-11-15T22:50:25.956Z,18.77
2017-11-15T22:52:54.273Z,22.70
2017-11-15T22:55:22.568Z,29.17
2017-11-15T22:57:50.944Z,20.17
2017-11-15T23:00:21.089Z,23.30
2017-11-15T23:02:49.523Z,19.03
2017-11-15T23:05:17.816Z,18.60
2017-11-15T23:07:46.109Z,19.23
2017-11-15T23:10:14.448Z,19.60
2017-11-15T23:12:42.780Z,18.17
2017-11-15T23:15:11.100Z,18.90
2017-11-15T23:17:39.428Z,27.47
2017-11-15T23:20:07.715Z,23.77
2017-11-15T23:22:36.816Z,19.60
2017-11-15T23:25:05.108Z,21.27
2017-11-15T23:27:34.900Z,22.93
2017-11-15T23:30:03.222Z,20.17
2017-11-15T23:32:31.554Z,22.93
2017-11-15T23:34:59.843Z,20.40
2017-11-15T23:37:28.180Z,19.57
2017-11-15T23:39:56.470Z,25.90
2017-11-15T23:42:24.780Z,19.80
2017-11-15T23:44:53.070Z,21.23
2017-11-15T23:47:22.168Z,21.33
2017-11-15T23:49:50.494Z,20.57
2017-11-15T23:52:18.824Z,24.10
2017-11-15T23:54:47.111Z,18.50
2017-11-15T23:57:15.435Z,25.17
2017-11-15T23:59:44.537Z,20.10
